Time;durP1;ratioP1;P1;durP2;ratioP2;P2;SDS_P1;SDS_P2;PMS_P1;PMS_P2;Temp;Humidity;BMP_temperature;BMP_pressure;BME280_temperature;BME280_humidity;BME280_pressure;Samples;Min_cycle;Max_cycle;Signal;HPM_P1;HPM_P2
2022/08/10 00:02:12;;;;;;;2.70;1.17;;;;;;;18.25;54.91;101974.66;5052776;28;20340;-80
2022/08/10 00:04:40;;;;;;;1.60;1.37;;;;;;;18.22;55.02;101984.78;5053740;28;20226;-79
2022/08/10 00:07:07;;;;;;;2.43;1.30;;;;;;;18.20;55.32;101981.34;5053728;28;20209;-79
2022/08/10 00:09:36;;;;;;;1.13;1.03;;;;;;;18.18;55.46;101972.50;5054033;28;20212;-80
2022/08/10 00:12:03;;;;;;;3.77;1.00;;;;;;;18.15;55.70;101976.28;5053673;28;20807;-80
2022/08/10 00:14:29;;;;;;;1.80;1.10;;;;;;;18.13;56.18;101978.22;5053340;28;20233;-79
2022/08/10 00:16:56;;;;;;;2.80;1.10;;;;;;;18.08;55.55;101982.25;5054479;28;20687;-80
2022/08/10 00:19:22;;;;;;;2.40;1.40;;;;;;;18.02;55.51;101984.44;5054388;28;20216;-79
2022/08/10 00:21:50;;;;;;;1.30;1.03;;;;;;;17.98;55.67;101982.91;5053976;28;20228;-80
2022/08/10 00:24:17;;;;;;;3.13;1.50;;;;;;;17.93;55.74;101987.78;5053650;28;20229;-80
2022/08/10 00:26:48;;;;;;;2.57;1.23;;;;;;;17.89;55.97;101989.00;5054496;28;20307;-80
2022/08/10 00:29:14;;;;;;;1.70;1.20;;;;;;;17.85;56.05;101978.56;5053579;28;20196;-80
2022/08/10 00:31:41;;;;;;;2.47;1.30;;;;;;;17.82;56.40;101982.31;5053728;28;20209;-80
2022/08/10 00:34:07;;;;;;;1.30;1.20;;;;;;;17.79;56.47;101987.06;5053756;28;20226;-79
2022/08/10 00:36:34;;;;;;;1.87;1.20;;;;;;;17.76;56.61;101976.50;5053360;28;20208;-80
2022/08/10 00:39:02;;;;;;;2.50;1.47;;;;;;;17.72;56.74;101988.50;5052407;28;20213;-81
2022/08/10 00:41:28;;;;;;;2.63;1.70;;;;;;;17.64;56.96;101986.34;5053079;28;20236;-80
2022/08/10 00:43:57;;;;;;;3.17;1.80;;;;;;;17.56;57.26;101977.91;5053550;28;20232;-79
2022/08/10 00:46:24;;;;;;;2.43;1.50;;;;;;;17.50;57.50;101983.75;5052881;28;20209;-80
2022/08/10 00:48:53;;;;;;;1.30;1.20;;;;;;;17.44;57.84;101982.34;5052740;28;20207;-80
2022/08/10 00:51:19;;;;;;;4.20;1.30;;;;;;;17.39;58.19;101979.09;5052831;28;20556;-79
2022/08/10 00:53:49;;;;;;;1.73;1.00;;;;;;;17.35;58.21;101973.09;5053308;28;20227;-80
2022/08/10 00:56:17;;;;;;;1.93;1.50;;;;;;;17.32;58.32;101967.06;5052914;28;20811;-80
2022/08/10 00:58:44;;;;;;;2.57;1.77;;;;;;;17.28;58.31;101970.94;5052867;28;20237;-80
2022/08/10 01:01:11;;;;;;;2.00;1.50;;;;;;;17.23;58.44;101963.19;5053025;28;20224;-79
2022/08/10 01:03:38;;;;;;;3.93;1.70;;;;;;;17.21;58.79;101961.56;5053104;28;20230;-80
2022/08/10 01:06:16;;;;;;;3.37;1.53;;;;;;;17.19;59.06;101960.84;5052620;28;20206;-80
2022/08/10 01:08:51;;;;;;;1.87;1.57;;;;;;;17.15;58.94;101948.56;5053794;28;20272;-80
2022/08/10 01:11:27;;;;;;;1.90;1.20;;;;;;;17.11;59.01;101947.91;5056983;28;20187;-80
2022/08/10 01:14:00;;;;;;;2.00;1.47;;;;;;;17.05;58.69;101947.44;5056269;28;20232;-79
2022/08/10 01:16:34;;;;;;;3.50;1.90;;;;;;;16.95;58.67;101953.50;5056813;28;20214;-80
2022/08/10 01:19:10;;;;;;;2.83;1.60;;;;;;;16.86;59.04;101947.88;5056971;28;20196;-80
2022/08/10 01:22:03;;;;;;;2.53;2.00;;;;;;;16.78;59.49;101944.88;5056398;28;20207;-80
2022/08/10 01:25:03;;;;;;;3.00;2.20;;;;;;;16.74;60.13;101946.03;5056650;28;20308;-79
2022/08/10 01:27:40;;;;;;;3.20;1.90;;;;;;;16.70;60.53;101942.69;5056498;28;20687;-80
2022/08/10 01:30:09;;;;;;;3.47;2.07;;;;;;;16.65;61.11;101945.72;5056810;28;20553;-80
2022/08/10 01:32:42;;;;;;;2.93;1.87;;;;;;;16.63;61.37;101947.66;5056416;28;20212;-80
2022/08/10 01:35:15;;;;;;;2.07;1.50;;;;;;;16.61;61.32;101948.69;5056524;28;20232;-79
2022/08/10 01:37:49;;;;;;;3.73;1.97;;;;;;;16.58;61.67;101930.06;5057058;28;20197;-80
2022/08/10 01:40:17;;;;;;;2.77;1.60;;;;;;;16.55;61.66;101936.50;5056305;28;20221;-80
2022/08/10 01:42:47;;;;;;;2.07;1.87;;;;;;;16.54;61.71;101934.78;5056555;28;20721;-80
2022/08/10 01:45:16;;;;;;;1.73;1.50;;;;;;;16.53;61.62;101940.25;5056132;28;20226;-80
2022/08/10 01:50:37;;;;;;;2.73;1.83;;;;;;;16.43;61.83;101937.34;5056475;28;20659;-78
2022/08/10 01:53:07;;;;;;;1.97;1.50;;;;;;;16.39;61.82;101934.94;5057012;28;20198;-80
2022/08/10 01:55:46;;;;;;;5.17;1.40;;;;;;;16.31;61.82;101941.69;5056654;28;20225;-78
2022/08/10 01:58:15;;;;;;;2.40;1.63;;;;;;;16.26;61.84;101945.69;5056722;28;20558;-79
2022/08/10 02:00:45;;;;;;;3.60;2.00;;;;;;;16.22;61.83;101939.63;5056912;28;20575;-79
2022/08/10 02:03:14;;;;;;;2.23;1.70;;;;;;;16.21;62.45;101950.47;5056289;28;20187;-79
2022/08/10 02:05:44;;;;;;;6.50;1.90;;;;;;;16.19;62.53;101944.34;5055984;28;20213;-79
2022/08/10 02:08:14;;;;;;;2.97;1.97;;;;;;;16.17;62.61;101948.97;5056426;28;20207;-79
2022/08/10 02:10:43;;;;;;;3.53;1.70;;;;;;;16.14;62.40;101947.31;5056118;28;20565;-80
2022/08/10 02:13:11;;;;;;;2.10;1.90;;;;;;;16.08;62.97;101950.44;5055866;28;20213;-79
2022/08/10 02:15:40;;;;;;;3.73;1.77;;;;;;;16.03;63.16;101951.69;5056460;28;20240;-79
2022/08/10 02:18:09;;;;;;;5.60;1.80;;;;;;;15.95;62.99;101953.06;5056674;28;20217;-80
2022/08/10 02:20:40;;;;;;;4.03;1.80;;;;;;;15.90;63.43;101954.34;5056124;28;20312;-80
2022/08/10 02:23:11;;;;;;;2.13;1.90;;;;;;;15.86;63.86;101959.03;5056325;28;20228;-80
2022/08/10 02:25:40;;;;;;;3.50;2.20;;;;;;;15.83;63.95;101953.00;5056001;28;20305;-78
2022/08/10 02:28:07;;;;;;;2.00;1.77;;;;;;;15.81;64.18;101950.41;5055872;28;20208;-80
2022/08/10 02:30:34;;;;;;;1.60;1.47;;;;;;;15.80;64.47;101954.06;5056361;28;20209;-80
2022/08/10 02:33:03;;;;;;;5.70;2.10;;;;;;;15.80;64.62;101958.56;5056279;28;20210;-81
2022/08/10 02:35:31;;;;;;;2.97;1.83;;;;;;;15.77;64.57;101948.00;5056244;28;20206;-78
2022/08/10 02:38:04;;;;;;;2.77;1.70;;;;;;;15.74;64.13;101957.16;5055318;28;20207;-78
2022/08/10 02:40:35;;;;;;;3.17;1.73;;;;;;;15.68;64.59;101949.47;5074336;22;20190;-69
2022/08/10 02:43:12;;;;;;;2.07;1.87;;;;;;;15.63;64.24;101943.53;5038296;28;20225;-71
2022/08/10 02:45:44;;;;;;;3.47;1.83;;;;;;;15.57;64.73;101954.69;5042892;28;20222;-71
2022/08/10 02:48:16;;;;;;;4.10;2.33;;;;;;;15.53;64.44;101953.97;5027215;28;20668;-71
2022/08/10 02:50:50;;;;;;;3.97;2.00;;;;;;;15.50;64.81;101954.16;5026823;28;20210;-71
2022/08/10 02:53:22;;;;;;;2.30;1.70;;;;;;;15.49;65.12;101952.44;5027935;28;20212;-71
2022/08/10 02:55:53;;;;;;;1.80;1.70;;;;;;;15.47;65.43;101956.19;5054399;22;20229;-73
2022/08/10 02:58:25;;;;;;;2.87;2.07;;;;;;;15.45;65.55;101958.94;5046779;28;20216;-72
2022/08/10 03:00:55;;;;;;;4.70;2.30;;;;;;;15.44;65.75;101967.09;5035097;28;20697;-73
2022/08/10 03:03:26;;;;;;;4.77;2.83;;;;;;;15.41;65.89;101957.41;5038098;28;20221;-73
2022/08/10 03:05:57;;;;;;;4.43;2.10;;;;;;;15.38;65.93;101962.13;5042256;28;20244;-72
2022/08/10 03:08:30;;;;;;;3.77;2.20;;;;;;;15.35;66.70;101963.19;5046889;28;20965;-71
2022/08/10 03:11:00;;;;;;;3.20;2.40;;;;;;;15.30;67.15;101965.28;5044492;28;20221;-73
2022/08/10 03:13:28;;;;;;;6.40;2.17;;;;;;;15.27;66.90;101962.78;5031937;28;20205;-75
2022/08/10 03:15:57;;;;;;;4.37;2.63;;;;;;;15.23;67.49;101963.94;5044628;28;20225;-73
2022/08/10 03:18:24;;;;;;;4.17;2.57;;;;;;;15.20;67.18;101958.78;5032971;28;20198;-73
2022/08/10 03:20:53;;;;;;;4.03;2.27;;;;;;;15.16;67.97;101959.91;5028490;28;20664;-74
2022/08/10 03:23:23;;;;;;;4.10;2.80;;;;;;;15.16;67.98;101970.66;5037936;28;20710;-73
2022/08/10 03:25:53;;;;;;;3.40;3.00;;;;;;;15.12;68.19;101959.25;5045562;28;20226;-73
2022/08/10 03:28:21;;;;;;;3.37;2.53;;;;;;;15.09;68.54;101962.09;5037091;28;20205;-72
2022/08/10 03:30:48;;;;;;;3.27;2.60;;;;;;;15.04;68.54;101963.38;5036473;28;20210;-73
2022/08/10 03:33:17;;;;;;;3.13;2.47;;;;;;;15.00;69.07;101951.94;5048965;28;20453;-73
2022/08/10 03:35:43;;;;;;;4.13;2.40;;;;;;;14.94;68.97;101947.81;5047926;28;20228;-73
2022/08/10 03:38:10;;;;;;;3.30;2.57;;;;;;;14.93;69.10;101953.28;5047542;28;20659;-73
2022/08/10 03:40:39;;;;;;;5.00;2.50;;;;;;;14.88;68.47;101945.50;5043990;28;20216;-73
2022/08/10 03:43:07;;;;;;;2.60;2.40;;;;;;;14.86;68.42;101949.25;5044704;28;20754;-73
2022/08/10 03:45:35;;;;;;;2.97;2.43;;;;;;;14.82;68.82;101948.56;5043217;28;20761;-73
2022/08/10 03:48:04;;;;;;;4.07;2.70;;;;;;;14.78;68.11;101951.53;5042466;28;20217;-73
2022/08/10 03:50:31;;;;;;;3.53;2.53;;;;;;;14.70;68.46;101943.91;5043704;28;20214;-73
2022/08/10 03:52:58;;;;;;;4.00;2.90;;;;;;;14.63;68.40;101955.13;5041908;28;20696;-73
2022/08/10 03:55:26;;;;;;;4.07;2.73;;;;;;;14.57;68.57;101959.03;5039122;28;20239;-73
2022/08/10 03:57:54;;;;;;;3.10;2.70;;;;;;;14.51;69.06;101954.88;5044650;28;20234;-73
2022/08/10 04:00:21;;;;;;;3.43;2.80;;;;;;;14.51;69.57;101952.19;5043006;28;20212;-73
2022/08/10 04:02:48;;;;;;;3.77;2.97;;;;;;;14.50;69.29;101950.50;5039384;28;20253;-74
2022/08/10 04:05:15;;;;;;;3.63;2.90;;;;;;;14.50;69.31;101949.63;5037763;28;20321;-73
2022/08/10 04:07:43;;;;;;;3.20;2.90;;;;;;;14.50;69.83;101955.88;5030860;28;20738;-73
2022/08/10 04:10:10;;;;;;;6.30;3.00;;;;;;;14.48;69.41;101956.91;5036450;28;20204;-73
2022/08/10 04:12:36;;;;;;;4.00;2.77;;;;;;;14.46;69.66;101954.31;5040677;28;20209;-73
2022/08/10 04:15:05;;;;;;;2.87;2.67;;;;;;;14.45;69.67;101955.25;5046853;28;20758;-73
2022/08/10 04:17:31;;;;;;;4.57;3.07;;;;;;;14.44;69.85;101952.66;5041234;28;20213;-73
2022/08/10 04:20:00;;;;;;;4.00;2.60;;;;;;;14.43;69.99;101956.31;5036080;28;20206;-73
2022/08/10 04:22:28;;;;;;;3.73;2.70;;;;;;;14.41;69.91;101951.03;5044394;28;20221;-73
2022/08/10 04:25:01;;;;;;;3.73;2.70;;;;;;;14.40;69.91;101949.28;5037906;28;20198;-73
2022/08/10 04:27:28;;;;;;;4.23;2.40;;;;;;;14.37;70.03;101944.06;5041886;28;20240;-73
2022/08/10 04:29:55;;;;;;;3.20;2.63;;;;;;;14.37;70.24;101951.25;5040043;28;20201;-73
2022/08/10 04:32:24;;;;;;;7.83;2.77;;;;;;;14.36;69.88;101958.44;5041613;28;20201;-71
2022/08/10 04:34:54;;;;;;;7.57;2.67;;;;;;;14.36;70.31;101953.06;5038214;28;20212;-73
2022/08/10 04:37:22;;;;;;;3.20;2.87;;;;;;;14.36;70.48;101953.06;5042628;28;20212;-73
2022/08/10 04:39:49;;;;;;;5.47;2.87;;;;;;;14.36;70.24;101953.06;5045452;28;20208;-72
2022/08/10 04:42:16;;;;;;;3.43;2.80;;;;;;;14.37;70.60;101957.47;5039811;28;20240;-73
2022/08/10 04:44:43;;;;;;;3.43;3.10;;;;;;;14.37;70.41;101960.16;5045328;28;20220;-73
2022/08/10 04:47:09;;;;;;;3.73;2.67;;;;;;;14.38;71.21;101972.59;5044817;28;20292;-73
2022/08/10 04:49:37;;;;;;;4.70;3.03;;;;;;;14.40;71.46;101970.75;5038730;28;20293;-73
2022/08/10 04:52:04;;;;;;;5.83;3.00;;;;;;;14.43;71.72;101972.38;5036943;28;20197;-73
2022/08/10 04:54:31;;;;;;;6.87;3.17;;;;;;;14.44;71.98;101969.63;5045060;28;20214;-73
2022/08/10 04:56:57;;;;;;;4.40;3.17;;;;;;;14.46;72.36;101974.88;5043216;28;20247;-73
2022/08/10 04:59:24;;;;;;;4.80;3.50;;;;;;;14.47;72.46;101979.31;5042641;28;20208;-73
2022/08/10 05:01:50;;;;;;;6.87;3.20;;;;;;;14.48;73.18;101976.53;5036683;28;20236;-73
2022/08/10 05:04:17;;;;;;;5.37;3.60;;;;;;;14.50;73.39;101974.63;5042727;28;20205;-73
2022/08/10 05:06:45;;;;;;;3.70;3.40;;;;;;;14.53;73.87;101981.59;5036875;28;20249;-73
2022/08/10 05:09:11;;;;;;;5.90;3.60;;;;;;;14.54;74.47;101988.69;5043707;28;20201;-73
2022/08/10 05:11:38;;;;;;;4.67;3.93;;;;;;;14.57;74.49;101989.38;5035225;28;20210;-74
2022/08/10 05:14:04;;;;;;;5.07;3.67;;;;;;;14.61;75.04;101994.56;5034921;28;20210;-71
2022/08/10 05:16:31;;;;;;;6.20;4.00;;;;;;;14.65;75.16;101990.75;5037081;28;20230;-73
2022/08/10 05:18:57;;;;;;;5.70;4.10;;;;;;;14.68;75.45;101987.91;5034874;28;20217;-73
2022/08/10 05:21:24;;;;;;;4.23;3.83;;;;;;;14.74;75.79;101999.09;5035605;28;20198;-73
2022/08/10 05:23:52;;;;;;;4.60;3.63;;;;;;;14.77;76.46;101998.06;5035099;28;20588;-73
2022/08/10 05:26:18;;;;;;;6.63;4.27;;;;;;;14.81;76.56;101997.81;5033377;28;20324;-72
2022/08/10 05:28:45;;;;;;;7.10;3.97;;;;;;;14.87;76.41;101996.53;5040257;28;20730;-73
2022/08/10 05:31:11;;;;;;;5.47;4.10;;;;;;;14.93;76.41;101996.19;5039766;28;20664;-73
2022/08/10 05:33:38;;;;;;;5.97;4.13;;;;;;;15.01;76.78;101999.28;5041339;28;20211;-72
2022/08/10 05:36:06;;;;;;;6.27;4.80;;;;;;;15.07;76.56;102000.72;5037009;28;20586;-73
2022/08/10 05:38:33;;;;;;;5.10;4.60;;;;;;;15.12;76.64;101999.50;5040416;28;20198;-73
2022/08/10 05:41:02;;;;;;;5.13;4.20;;;;;;;15.20;76.85;101996.34;5043682;28;20197;-73
2022/08/10 05:43:28;;;;;;;4.47;4.07;;;;;;;15.27;76.58;101995.00;5043951;28;20227;-70
2022/08/10 05:45:55;;;;;;;7.53;4.97;;;;;;;15.36;76.82;102001.63;5035884;28;20296;-72
2022/08/10 05:48:22;;;;;;;7.07;4.00;;;;;;;15.44;76.82;101996.63;5034294;28;20569;-72
2022/08/10 05:50:48;;;;;;;6.20;4.23;;;;;;;15.53;76.39;101993.38;5040586;28;20205;-71
2022/08/10 05:53:15;;;;;;;6.67;5.13;;;;;;;15.60;76.63;101998.28;5039793;28;20206;-72
2022/08/10 05:55:41;;;;;;;9.67;4.87;;;;;;;15.70;76.60;101993.22;5045027;28;20238;-73
2022/08/10 05:58:10;;;;;;;7.23;4.50;;;;;;;15.81;76.51;101992.53;5045999;28;20201;-72
2022/08/10 06:00:40;;;;;;;8.67;4.50;;;;;;;15.91;76.10;101997.22;5046300;28;20206;-72
2022/08/10 06:03:08;;;;;;;8.33;4.97;;;;;;;16.02;76.16;101993.84;5046641;28;20256;-72
2022/08/10 06:05:37;;;;;;;12.57;5.47;;;;;;;16.12;75.97;101994.13;5042927;28;20294;-72
2022/08/10 06:08:08;;;;;;;7.57;4.90;;;;;;;16.22;75.25;102006.84;5044013;28;20213;-73
2022/08/10 06:10:37;;;;;;;10.23;5.00;;;;;;;16.33;74.92;102008.81;5042748;28;20686;-73
2022/08/10 06:15:53;;;;;;;11.80;4.60;;;;;;;16.57;74.46;102007.19;5041601;28;20379;-73
2022/08/10 06:18:20;;;;;;;9.90;4.97;;;;;;;16.69;73.88;101999.28;5047672;28;20246;-73
2022/08/10 06:20:47;;;;;;;11.83;4.80;;;;;;;16.81;73.38;101993.09;5047425;28;20210;-73
2022/08/10 06:23:14;;;;;;;8.17;4.40;;;;;;;16.91;72.96;101997.72;5045834;28;20233;-73
2022/08/10 06:25:41;;;;;;;9.63;4.33;;;;;;;17.05;72.66;101993.22;5040218;28;20229;-73
2022/08/10 06:28:09;;;;;;;9.97;4.70;;;;;;;17.20;72.13;101995.69;5044273;28;20214;-73
2022/08/10 06:30:37;;;;;;;4.73;3.60;;;;;;;17.38;71.83;102001.63;5041278;28;20211;-72
2022/08/10 06:33:07;;;;;;;6.77;4.10;;;;;;;17.52;70.62;101995.28;5041807;28;20209;-72
2022/08/10 06:35:35;;;;;;;6.63;4.20;;;;;;;17.65;69.92;101998.84;5042560;28;20236;-73
2022/08/10 06:38:04;;;;;;;8.93;4.70;;;;;;;17.79;68.96;102004.09;5047768;28;20482;-73
2022/08/10 06:40:35;;;;;;;9.33;4.27;;;;;;;17.92;68.29;102010.31;5047637;28;20212;-73
2022/08/10 06:43:06;;;;;;;9.20;4.20;;;;;;;18.08;67.96;102006.53;5041703;28;20226;-73
2022/08/10 06:45:39;;;;;;;6.87;3.80;;;;;;;18.23;67.11;102006.25;5044255;28;20245;-73
2022/08/10 06:48:13;;;;;;;7.77;4.00;;;;;;;18.40;66.67;102010.38;5043696;28;20816;-73
2022/08/10 06:50:44;;;;;;;7.47;3.50;;;;;;;18.54;65.44;102006.66;5040762;28;20215;-73
2022/08/10 06:53:15;;;;;;;8.40;3.90;;;;;;;18.68;64.28;102003.78;5045257;28;20194;-73
2022/08/10 06:55:46;;;;;;;7.20;3.23;;;;;;;18.82;63.60;102006.28;5043316;28;20241;-74
2022/08/10 06:58:14;;;;;;;6.20;2.57;;;;;;;18.95;62.58;102017.03;5035461;28;20209;-72
2022/08/10 07:00:43;;;;;;;7.20;3.20;;;;;;;19.07;61.66;102005.28;5036697;28;20207;-73
2022/08/10 07:03:15;;;;;;;8.33;3.30;;;;;;;19.21;60.82;102012.28;5035061;28;20232;-73
2022/08/10 07:05:46;;;;;;;9.13;3.43;;;;;;;19.34;60.30;102008.53;5031997;28;20286;-73
2022/08/10 07:08:17;;;;;;;5.53;2.87;;;;;;;19.48;58.97;102011.97;5033765;28;20237;-73
2022/08/10 07:10:46;;;;;;;5.23;2.83;;;;;;;19.60;58.85;102008.31;5038802;28;20698;-73
2022/08/10 07:13:14;;;;;;;5.77;2.73;;;;;;;19.72;58.18;102008.19;5036585;28;20217;-72
2022/08/10 07:15:43;;;;;;;6.37;2.70;;;;;;;19.87;57.57;102006.13;5035652;28;20722;-71
2022/08/10 07:18:11;;;;;;;3.07;2.37;;;;;;;20.03;57.04;102001.19;5035652;28;20219;-72
2022/08/10 07:20:38;;;;;;;4.20;2.70;;;;;;;20.21;56.49;102008.78;5042046;28;20213;-73
2022/08/10 07:23:07;;;;;;;5.43;2.73;;;;;;;20.36;55.72;102004.78;5040221;28;20235;-73
2022/08/10 07:25:34;;;;;;;4.53;2.37;;;;;;;20.53;55.75;102006.97;5037430;28;20733;-73
2022/08/10 07:28:02;;;;;;;7.93;2.40;;;;;;;20.68;55.01;102005.69;5034602;28;20212;-73
2022/08/10 07:30:31;;;;;;;5.53;2.73;;;;;;;20.86;54.86;102005.97;5041255;28;20591;-73
2022/08/10 07:33:00;;;;;;;5.07;3.03;;;;;;;21.01;54.52;102004.66;5034936;28;20267;-72
2022/08/10 07:35:29;;;;;;;6.10;2.70;;;;;;;21.12;53.77;101999.19;5036972;28;20242;-72
2022/08/10 07:37:58;;;;;;;7.33;3.37;;;;;;;21.29;53.56;102000.47;5035614;28;20230;-73
2022/08/10 07:40:25;;;;;;;4.93;2.43;;;;;;;21.44;53.33;101999.09;5036422;28;20607;-74
2022/08/10 07:42:55;;;;;;;4.93;2.27;;;;;;;21.60;52.86;102003.16;5033334;28;20208;-73
2022/08/10 07:45:27;;;;;;;6.60;2.93;;;;;;;21.75;52.59;101999.09;5042226;28;20228;-73
2022/08/10 07:47:58;;;;;;;12.50;2.47;;;;;;;21.92;52.23;101998.44;5033746;28;20201;-73
2022/08/10 07:50:27;;;;;;;4.50;2.50;;;;;;;22.06;51.25;101998.06;5039342;28;20212;-75
2022/08/10 07:52:58;;;;;;;6.10;2.53;;;;;;;22.20;51.03;101991.41;5042585;28;20196;-75
2022/08/10 07:55:25;;;;;;;3.28;2.25;;;;;;;22.34;50.76;101993.72;5041962;28;20320;-75
2022/08/10 07:57:55;;;;;;;5.88;2.30;;;;;;;22.51;50.96;101992.16;5046495;28;20319;-74
2022/08/10 08:00:23;;;;;;;4.63;2.58;;;;;;;22.66;49.98;101996.16;5038184;28;21616;-75
2022/08/10 08:02:52;;;;;;;6.55;2.85;;;;;;;22.80;49.58;101992.19;5037290;28;20224;-75
2022/08/10 08:05:21;;;;;;;4.78;2.50;;;;;;;22.95;49.26;101998.03;5034918;28;20229;-75
2022/08/10 08:07:49;;;;;;;4.25;2.60;;;;;;;23.11;48.62;101990.16;5035292;28;20239;-75
2022/08/10 08:10:17;;;;;;;5.25;2.42;;;;;;;23.23;47.71;101988.13;5038435;28;20723;-75
2022/08/10 08:12:46;;;;;;;5.10;2.20;;;;;;;23.37;47.48;101990.38;5044729;28;20212;-74
2022/08/10 08:15:15;;;;;;;4.15;2.50;;;;;;;23.51;47.21;101985.34;5033784;28;20229;-75
2022/08/10 08:17:43;;;;;;;4.57;2.00;;;;;;;23.65;47.11;101986.69;5042259;28;20202;-75
2022/08/10 08:20:11;;;;;;;3.47;2.15;;;;;;;23.77;46.85;101987.38;5036596;28;20205;-75
2022/08/10 08:22:39;;;;;;;4.20;2.38;;;;;;;23.87;46.57;101983.59;5040402;28;20221;-75
2022/08/10 08:25:07;;;;;;;3.65;2.13;;;;;;;24.01;46.47;101982.22;5037437;28;20232;-75
2022/08/10 08:27:38;;;;;;;4.95;2.42;;;;;;;24.19;46.29;101990.41;5043561;28;20201;-75
2022/08/10 08:30:06;;;;;;;2.70;2.30;;;;;;;24.32;46.14;101982.78;5039760;28;20208;-75
2022/08/10 08:32:37;;;;;;;7.10;2.25;;;;;;;24.45;45.76;101976.94;5041444;28;20209;-75
2022/08/10 08:35:07;;;;;;;4.47;2.40;;;;;;;24.59;45.69;101976.41;5037487;28;20220;-75
2022/08/10 08:37:36;;;;;;;3.90;2.45;;;;;;;24.74;45.46;101969.38;5041926;28;20201;-75
2022/08/10 08:40:06;;;;;;;3.90;2.22;;;;;;;24.90;44.93;101960.50;5035531;28;20201;-73
2022/08/10 08:42:54;;;;;;;6.30;2.60;;;;;;;25.02;44.56;101958.41;5039098;28;20215;-74
2022/08/10 08:45:25;;;;;;;7.95;2.50;;;;;;;25.12;44.19;101964.59;5037703;28;20217;-75
2022/08/10 08:48:17;;;;;;;11.18;3.00;;;;;;;25.25;44.19;101962.31;5037215;28;20216;-75
2022/08/10 08:50:58;;;;;;;4.57;2.67;;;;;;;25.38;43.46;101960.00;5040155;28;20617;-75
2022/08/10 08:53:37;;;;;;;10.88;2.80;;;;;;;25.50;43.23;101957.81;5041627;28;20198;-75
2022/08/10 08:56:09;;;;;;;8.43;2.80;;;;;;;25.63;42.92;101958.25;5035598;28;20714;-76
2022/08/10 08:58:52;;;;;;;4.47;2.35;;;;;;;25.78;42.35;101956.63;5035529;28;20250;-75
2022/08/10 09:01:31;;;;;;;4.60;2.40;;;;;;;25.90;42.59;101949.84;5051111;22;20205;-82
2022/08/10 09:04:17;;;;;;;5.35;2.58;;;;;;;26.02;41.69;101952.25;5042563;28;20228;-83
2022/08/10 09:06:54;;;;;;;6.68;2.70;;;;;;;26.15;41.23;101958.13;5040140;28;20293;-82
2022/08/10 09:09:50;;;;;;;3.72;2.45;;;;;;;26.28;41.31;101962.06;5046472;28;20288;-82
2022/08/10 09:12:32;;;;;;;3.80;2.50;;;;;;;26.40;40.65;101953.56;5046859;28;20228;-83
2022/08/10 09:15:05;;;;;;;3.05;2.35;;;;;;;26.50;40.50;101949.66;5049271;28;20224;-83
2022/08/10 09:17:39;;;;;;;5.13;2.63;;;;;;;26.65;40.42;101949.00;5046144;28;20205;-83
2022/08/10 09:20:10;;;;;;;6.03;2.75;;;;;;;26.80;39.42;101942.66;5048104;28;20203;-83
2022/08/10 09:22:44;;;;;;;3.83;2.30;;;;;;;26.93;39.18;101939.38;5047683;28;20227;-82
2022/08/10 09:25:16;;;;;;;3.83;2.28;;;;;;;27.07;38.69;101932.38;5046498;28;22026;-83
2022/08/10 09:27:45;;;;;;;2.00;1.90;;;;;;;27.20;38.40;101927.25;5045101;28;20201;-82
2022/08/10 09:30:18;;;;;;;5.38;2.03;;;;;;;27.29;37.82;101932.50;5046252;28;20201;-82
2022/08/10 09:32:47;;;;;;;4.30;2.10;;;;;;;27.35;36.92;101935.59;5051178;28;20216;-82
2022/08/10 09:35:21;;;;;;;3.60;1.92;;;;;;;27.36;36.08;101926.34;5049814;28;20208;-82
2022/08/10 09:38:00;;;;;;;2.80;2.00;;;;;;;27.45;36.38;101928.84;5048521;28;20255;-82
2022/08/10 09:40:36;;;;;;;2.13;1.60;;;;;;;27.58;36.02;101920.16;5051778;28;20197;-82
2022/08/10 09:43:07;;;;;;;2.63;1.85;;;;;;;27.72;35.39;101913.06;5053948;28;20658;-82
2022/08/10 09:45:45;;;;;;;4.38;1.52;;;;;;;27.79;34.95;101917.63;5053739;28;20217;-82
2022/08/10 09:48:21;;;;;;;2.33;1.40;;;;;;;27.80;34.55;101921.22;5054746;28;20197;-82
2022/08/10 09:50:56;;;;;;;3.10;1.65;;;;;;;27.81;34.02;101915.56;5053591;28;20232;-82
2022/08/10 09:53:38;;;;;;;2.85;1.70;;;;;;;27.84;34.08;101914.34;5052725;28;20251;-82
2022/08/10 09:56:17;;;;;;;2.30;1.42;;;;;;;27.93;33.57;101913.28;5052109;28;20201;-82
2022/08/10 09:58:50;;;;;;;1.38;1.27;;;;;;;27.99;32.69;101913.41;5051995;28;20217;-82
2022/08/10 10:01:24;;;;;;;3.60;1.50;;;;;;;28.05;32.91;101906.34;5047746;28;20787;-82
2022/08/10 10:03:58;;;;;;;2.88;1.83;;;;;;;28.14;32.98;101908.00;5053221;28;20308;-83
2022/08/10 10:06:32;;;;;;;2.72;1.20;;;;;;;28.18;32.99;101906.59;5051382;28;21326;-83
2022/08/10 10:09:07;;;;;;;3.00;1.52;;;;;;;28.23;33.28;101906.09;5052603;28;20669;-83
2022/08/10 10:11:41;;;;;;;4.20;1.48;;;;;;;28.30;32.86;101904.34;5052167;28;20229;-83
2022/08/10 10:14:17;;;;;;;1.63;1.23;;;;;;;28.32;32.84;101903.09;5052130;28;20629;-83
2022/08/10 10:17:02;;;;;;;3.17;1.50;;;;;;;28.38;32.82;101896.03;5052074;28;20291;-83
2022/08/10 10:19:50;;;;;;;5.22;2.35;;;;;;;28.44;33.43;101895.31;5051780;28;20201;-83
2022/08/10 10:22:36;;;;;;;4.68;1.88;;;;;;;28.48;33.14;101891.19;5050880;28;20229;-83
2022/08/10 10:25:09;;;;;;;2.28;1.40;;;;;;;28.50;32.05;101893.72;5051720;28;20228;-81
2022/08/10 10:27:40;;;;;;;2.70;1.30;;;;;;;28.48;31.96;101884.84;5050851;28;20210;-81
2022/08/10 10:30:10;;;;;;;3.97;1.50;;;;;;;28.53;32.11;101888.72;5050554;28;20244;-81
2022/08/10 10:32:54;;;;;;;2.90;1.60;;;;;;;28.60;31.85;101881.47;5041671;28;20663;-81
2022/08/10 10:35:24;;;;;;;5.68;1.80;;;;;;;28.69;31.56;101876.75;5047336;28;20671;-81
2022/08/10 10:37:53;;;;;;;2.78;1.70;;;;;;;28.79;31.37;101871.00;5048460;28;20217;-81
2022/08/10 10:40:23;;;;;;;2.85;1.77;;;;;;;28.85;31.58;101875.75;5050738;28;20211;-81
2022/08/10 10:43:01;;;;;;;5.15;2.10;;;;;;;28.95;31.55;101870.88;5049928;28;20217;-81
2022/08/10 10:45:35;;;;;;;3.40;1.67;;;;;;;29.07;31.70;101871.25;5049437;28;20228;-81
2022/08/10 10:48:12;;;;;;;2.50;1.55;;;;;;;29.13;31.24;101873.22;5056629;28;20574;-81
2022/08/10 10:50:51;;;;;;;3.10;1.50;;;;;;;29.19;31.35;101873.34;5048892;28;20194;-81
2022/08/10 10:53:24;;;;;;;3.10;1.67;;;;;;;29.19;31.11;101862.38;5052042;28;20208;-81
2022/08/10 10:55:56;;;;;;;2.83;1.48;;;;;;;29.21;30.95;101864.88;5049421;28;20190;-81
2022/08/10 10:58:27;;;;;;;3.80;1.52;;;;;;;29.23;30.90;101858.19;5052988;28;20646;-81
2022/08/10 11:01:03;;;;;;;1.63;1.42;;;;;;;29.28;30.42;101855.72;5054595;28;20241;-81
2022/08/10 11:03:50;;;;;;;2.35;1.60;;;;;;;29.26;30.29;101857.81;5045929;28;20621;-81
2022/08/10 11:06:24;;;;;;;2.95;1.40;;;;;;;29.28;30.79;101855.72;5045548;28;20288;-82
2022/08/10 11:08:56;;;;;;;4.55;1.42;;;;;;;29.31;30.89;101854.50;5048520;28;20197;-81
2022/08/10 11:11:29;;;;;;;2.13;1.50;;;;;;;29.31;30.42;101844.38;5050471;28;20608;-81
2022/08/10 11:14:12;;;;;;;1.40;1.23;;;;;;;29.32;30.78;101858.94;5050794;28;20197;-82
2022/08/10 11:16:46;;;;;;;3.53;1.63;;;;;;;29.39;30.38;101859.91;5047351;28;20248;-82
2022/08/10 11:19:18;;;;;;;1.92;1.23;;;;;;;29.39;29.92;101859.91;5045142;28;20197;-82
2022/08/10 11:22:03;;;;;;;2.28;1.48;;;;;;;29.41;30.06;101860.56;5042683;28;20238;-81
2022/08/10 11:24:41;;;;;;;1.88;1.38;;;;;;;29.42;29.81;101873.25;5047612;28;20229;-82
2022/08/10 11:27:15;;;;;;;2.28;1.25;;;;;;;29.43;29.76;101863.97;5047373;28;20205;-81
2022/08/10 11:29:49;;;;;;;4.10;2.00;;;;;;;29.47;29.91;101859.81;5054175;28;20663;-81
2022/08/10 11:32:21;;;;;;;3.92;1.42;;;;;;;29.52;30.66;101851.84;5055865;28;20232;-81
2022/08/10 11:34:56;;;;;;;2.78;1.50;;;;;;;29.57;29.76;101860.34;5053452;28;20212;-81
2022/08/10 11:37:35;;;;;;;1.50;1.40;;;;;;;29.58;29.85;101856.53;5046148;28;20292;-81
2022/08/10 11:40:09;;;;;;;1.58;1.40;;;;;;;29.59;29.62;101857.41;5046708;28;20683;-81
2022/08/10 11:42:40;;;;;;;2.45;1.20;;;;;;;29.61;29.40;101850.69;5044919;28;20714;-82
2022/08/10 11:45:12;;;;;;;2.17;1.10;;;;;;;29.64;28.69;101853.03;5049309;28;20596;-82
2022/08/10 11:47:46;;;;;;;1.15;1.05;;;;;;;29.67;28.91;101858.16;5047933;28;20219;-82